University AP, Davis, CA, CA

12:08 AM PST on December 16, 2019 (GMT -0800)
University AP, Davis, CA

Weather History for KEDU - October, 2019

Change the Weather History Date:

Saturday, October 12, 2019

  Actual Average (KSMF) Record (KSMF)
Temperature  
Mean Temperature 59 °F -  
Max Temperature 77 °F 79 °F 97 °F (1991)
Min Temperature 41 °F 51 °F 39 °F (2002)
Degree Days  
Heating Degree Days 6    
Growing Degree Days 9 (Base 50)    
Moisture  
Dew Point 34 °F    
Average Humidity 43    
Maximum Humidity 71    
Minimum Humidity 17    
Precipitation  
Precipitation 0.00 in - - ()
Sea Level Pressure  
Sea Level Pressure 29.91 in    
Wind  
Wind Speed 1 mph ()    
Max Wind Speed 7 mph    
Max Gust Speed -    
Visibility 10.0 miles    
Events      
Averages and records for this station are not official NWS values.
T = Trace of Precipitation, MM = Missing Value Source: Averaged Metar Reports

Daily Weather History Graph

Daily Weather History Graph

Search for Another Location

Airport or City:

Astronomy

Oct. 12, 2019 Rise Set
Actual Time 7:13 AM PDT 6:33 PM PDT
Civil Twilight 6:46 AM PDT 7:00 PM PDT
Nautical Twilight 6:15 AM PDT 7:30 PM PDT
Astronomical Twilight 5:45 AM PDT 8:01 PM PDT
Moon 6:30 PM PDT (10/12) 5:57 AM PDT (10/12)
Length of Visible Light 12h 13m
Length of Day
11h 20m
Waxing Gibbous, 99% of the Moon is Illuminated
Oct 12
Waxing Gibbous
Oct 13
Full
Oct 21
Last Quarter
Oct 27
New
Nov 4
First Quarter

Hourly Weather History & Observations

Time (PDT) Temp. Windchill Dew Point Humidity Pressure Visibility Wind Dir Wind Speed Gust Speed Precip Events Conditions
12:00 AM 51.8 °F - 33.8 °F 50% 29.95 in 10.0 mi North - - N/A   Clear
12:20 AM 50.0 °F - 33.8 °F 54% 29.95 in 10.0 mi Calm Calm - N/A   Clear
12:40 AM 50.0 °F - 32.0 °F 50% 29.94 in 10.0 mi Calm Calm - N/A   Clear
1:00 AM 50.0 °F - 33.8 °F 54% 29.94 in 10.0 mi Calm Calm - N/A   Clear
1:20 AM 48.2 °F - 32.0 °F 54% 29.95 in 10.0 mi Calm Calm - N/A   Clear
1:40 AM 48.2 °F - 33.8 °F 58% 29.95 in 10.0 mi Calm Calm - N/A   Clear
2:00 AM 50.0 °F - 35.6 °F 58% 29.95 in 10.0 mi Calm Calm - N/A   Clear
2:20 AM 46.4 °F - 33.8 °F 62% 29.95 in 10.0 mi Calm Calm - N/A   Clear
2:40 AM 46.4 °F - 33.8 °F 62% 29.94 in 10.0 mi Calm Calm - N/A   Clear
3:00 AM 46.4 °F - 35.6 °F 66% 29.94 in 10.0 mi North - - N/A   Clear
3:20 AM 44.6 °F - 35.6 °F 71% 29.94 in 10.0 mi Calm Calm - N/A   Clear
3:40 AM 44.6 °F - 33.8 °F 66% 29.94 in 10.0 mi Calm Calm - N/A   Clear
4:00 AM 46.4 °F - 33.8 °F 62% 29.93 in 10.0 mi Calm Calm - N/A   Clear
4:20 AM 44.6 °F - 33.8 °F 66% 29.93 in 10.0 mi Calm Calm - N/A   Clear
4:40 AM 44.6 °F - 33.8 °F 66% 29.93 in 10.0 mi Calm Calm - N/A   Clear
5:00 AM 44.6 °F - 32.0 °F 61% 29.93 in 10.0 mi Calm Calm - N/A   Clear
5:20 AM 42.8 °F - 32.0 °F 66% 29.93 in 10.0 mi Calm Calm - N/A   Clear
5:40 AM 44.6 °F - 32.0 °F 61% 29.94 in 10.0 mi Calm Calm - N/A   Clear
6:00 AM 41.0 °F - 32.0 °F 70% 29.94 in 10.0 mi Calm Calm - N/A   Clear
6:20 AM 44.6 °F - 30.2 °F 57% 29.94 in 10.0 mi Calm Calm - N/A   Clear
6:40 AM 44.6 °F 43.1 °F 32.0 °F 61% 29.94 in 10.0 mi North 3.5 mph - N/A   Clear
7:00 AM 42.8 °F - 32.0 °F 66% 29.95 in 10.0 mi Calm Calm - N/A   Clear
7:20 AM 44.6 °F - 32.0 °F 61% 29.95 in 10.0 mi Calm Calm - N/A   Clear
7:40 AM 44.6 °F - 32.0 °F 61% 29.96 in 10.0 mi Calm Calm - N/A   Clear
8:00 AM 44.6 °F - 32.0 °F 61% 29.96 in 10.0 mi Calm Calm - N/A   Clear
8:20 AM 48.2 °F - 32.0 °F 54% 29.96 in 10.0 mi North 3.5 mph - N/A   Clear
8:40 AM 50.0 °F - 32.0 °F 50% 29.96 in 10.0 mi Calm Calm - N/A   Clear
9:00 AM 51.8 °F - 32.0 °F 47% 29.96 in 10.0 mi North 3.5 mph - N/A   Clear
9:20 AM 55.4 °F - 32.0 °F 41% 29.96 in 10.0 mi NNW 4.6 mph - N/A   Clear
9:40 AM 57.2 °F - 32.0 °F 38% 29.97 in 10.0 mi NNW 3.5 mph - N/A   Clear
10:00 AM 59.0 °F - 32.0 °F 36% 29.97 in 10.0 mi North 4.6 mph - N/A   Clear
10:20 AM 60.8 °F - 33.8 °F 36% 29.97 in 10.0 mi NNW 3.5 mph - N/A   Clear
10:40 AM 62.6 °F - 33.8 °F 34% 29.97 in 10.0 mi NNW 4.6 mph - N/A   Clear
11:00 AM 64.4 °F - 33.8 °F 32% 29.97 in 10.0 mi NNE 5.8 mph - N/A   Clear
11:20 AM 66.2 °F - 33.8 °F 30% 29.96 in 10.0 mi North 4.6 mph - N/A   Clear
11:40 AM 68.0 °F - 33.8 °F 28% 29.96 in 10.0 mi NNW 3.5 mph - N/A   Clear
12:00 PM 68.0 °F - 32.0 °F 26% 29.95 in 10.0 mi North 4.6 mph - N/A   Clear
12:20 PM 71.6 °F - 32.0 °F 23% 29.95 in 10.0 mi NE 4.6 mph - N/A   Clear
12:40 PM 71.6 °F - 32.0 °F 23% 29.94 in 10.0 mi North 4.6 mph - N/A   Clear
1:00 PM 73.4 °F - 32.0 °F 22% 29.93 in 10.0 mi NNE 3.5 mph - N/A   Clear
1:20 PM 73.4 °F - 32.0 °F 22% 29.93 in 10.0 mi NE 6.9 mph - N/A   Clear
1:40 PM 73.4 °F - 32.0 °F 22% 29.92 in 10.0 mi NE 6.9 mph - N/A   Clear
2:00 PM 75.2 °F - 32.0 °F 21% 29.91 in 10.0 mi NNW 4.6 mph - N/A   Clear
2:20 PM 75.2 °F - 32.0 °F 21% 29.90 in 10.0 mi NNE 5.8 mph - N/A   Clear
2:40 PM 75.2 °F - 30.2 °F 19% 29.89 in 10.0 mi North 4.6 mph - N/A   Clear
3:00 PM 77.0 °F - 28.4 °F 17% 29.88 in 10.0 mi Calm Calm - N/A   Clear
3:20 PM 77.0 °F - 30.2 °F 18% 29.88 in 10.0 mi East 4.6 mph - N/A   Clear
3:40 PM 77.0 °F - 32.0 °F 19% 29.87 in 9.0 mi NE 3.5 mph - N/A   Clear
4:00 PM 77.0 °F - 30.2 °F 18% 29.87 in 10.0 mi Calm Calm - N/A   Clear
4:20 PM 77.0 °F - 30.2 °F 18% 29.86 in 10.0 mi Calm Calm - N/A   Clear
4:40 PM 77.0 °F - 30.2 °F 18% 29.85 in 10.0 mi SSE 3.5 mph - N/A   Clear
5:00 PM 77.0 °F - 32.0 °F 19% 29.85 in 10.0 mi Calm Calm - N/A   Clear
5:20 PM 77.0 °F - 32.0 °F 19% 29.85 in 10.0 mi Calm Calm - N/A   Clear
5:40 PM 77.0 °F - 30.2 °F 18% 29.84 in 10.0 mi Calm Calm - N/A   Clear
6:00 PM 73.4 °F - 37.4 °F 27% 29.84 in 10.0 mi Calm Calm - N/A   Clear
6:20 PM 69.8 °F - 41.0 °F 35% 29.84 in 10.0 mi Calm Calm - N/A   Clear
6:40 PM 68.0 °F - 39.2 °F 35% 29.84 in 10.0 mi Calm Calm - N/A   Clear
7:00 PM 66.2 °F - 39.2 °F 37% 29.84 in 10.0 mi Calm Calm - N/A   Clear
7:20 PM 62.6 °F - 39.2 °F 42% 29.84 in 10.0 mi Calm Calm - N/A   Clear
7:40 PM 62.6 °F - 37.4 °F 39% 29.84 in 10.0 mi SSE 3.5 mph - N/A   Clear
8:00 PM 62.6 °F - 37.4 °F 39% 29.84 in 10.0 mi Calm Calm - N/A   Clear
8:20 PM 60.8 °F - 37.4 °F 42% 29.84 in 10.0 mi Calm Calm - N/A   Clear
8:40 PM 59.0 °F - 37.4 °F 45% 29.85 in 10.0 mi Calm Calm - N/A   Clear
9:00 PM 59.0 °F - 37.4 °F 45% 29.85 in 10.0 mi Calm Calm - N/A   Clear
9:20 PM 57.2 °F - 37.4 °F 48% 29.85 in 10.0 mi Calm Calm - N/A   Clear
9:40 PM 57.2 °F - 35.6 °F 44% 29.85 in 10.0 mi North - - N/A   Clear
10:00 PM 57.2 °F - 37.4 °F 48% 29.85 in 10.0 mi Calm Calm - N/A   Clear
10:20 PM 55.4 °F - 37.4 °F 51% 29.86 in 10.0 mi Calm Calm - N/A   Clear
10:40 PM 53.6 °F - 41.0 °F 62% 29.86 in 10.0 mi North - - N/A   Clear
11:00 PM 53.6 °F - 39.2 °F 58% 29.86 in 10.0 mi Calm Calm - N/A   Clear
11:20 PM 53.6 °F - 39.2 °F 58% 29.86 in 10.0 mi Calm Calm - N/A   Clear